Jewell, OH (43530)

8:03 AM EDT on August 30, 2015 (GMT -0400)
Defiance Memorial | | Change Station
CLOSE
Current Station
Airport
Location: Defiance,
Elevation: 705 ft
Nearby Weather Stations

Elev 705 ft 41.34 °N, 84.43 °W | Updated 2 minutes ago

Overcast
Overcast
69 °F
Feels Like 69 °F
N
0
Wind Variable Wind from North

Today
High -- | Low -- °F
--% Chance of Precip.
Yesterday
High -- | Low -- °F
Precip. -- in
7:01 AM 8:13 PM
Full, 99% visible
Pressure 30.07 in
Visibility 1.5 miles
Clouds Scattered Clouds 6000 ft
Scattered Clouds 10000 ft
Dew Point 67 °F
Humidity 93%
Rainfall 0.15 in
Snow Depth Not available.
UV 0 out of 12
Pollen 8.40 out of 12
Air Quality Not available.
Flu Activity Not available.
SPECI KDFI 301201Z AUTO 00000KT 1 1/2SM BR SCT060 SCT100 21/19 A3007 RMK AO2 T02060194 $
Pressure 30.07 in
Visibility 1.5 miles
Clouds Scattered Clouds 6000 ft
Scattered Clouds 10000 ft
Dew Point 67 °F
Humidity 93%
Rainfall 0.15 in
Snow Depth Not available.
UV 0 out of 12
Pollen 8.40 out of 12
Air Quality Not available.
Flu Activity Not available.
SPECI KDFI 301201Z AUTO 00000KT 1 1/2SM BR SCT060 SCT100 21/19 A3007 RMK AO2 T02060194 $

10-Day Weather Forecast

×

Almanac

Astronomy

Aug. 30, 2015 Rise Set
Actual Time
Civil Twilight
Nautical Twilight
Astronomical Twilight
Moon
Length of Visible Light
Length of Day
Tomorrow will be .
, % of the Moon is Illuminated

Today's Extremes

State Highs State Lows

Community

WunderPhotos

Upload Photos

1,850,934 photos uploaded!

WunderBlogs® & News

Nearby

Air Quality

  Air Quality AQ Index Pollutant
Not available.

Snow Depth

Station Depth Elevation

Earthquake Activity

City Distance Mag. Time & Date
Minimum magnitude displayed is 2.5.

Coastal Water Temperatures

Place Temperature

Stations

Nearby Weather Stations

Station Location Temp. Windchill Dew Point Humidity Wind Precip. Elev Updated Type